createdAt,value
2023-08-14T12:52:39.000Z,14.49
2023-08-14T12:57:37.000Z,14.38
2023-08-14T13:02:36.000Z,14.38
2023-08-14T13:07:39.000Z,13.8
2023-08-14T13:12:36.000Z,14.03
2023-08-14T13:17:37.000Z,14.63
2023-08-14T13:22:36.000Z,15.89
2023-08-14T13:27:36.000Z,14.4
2023-08-14T13:32:36.000Z,14.94
2023-08-14T13:37:36.000Z,14.23
2023-08-14T13:42:36.000Z,15.37
2023-08-14T13:47:43.000Z,14.89
2023-08-14T13:52:38.000Z,16.94
2023-08-14T13:57:36.000Z,14.85
2023-08-14T14:02:37.000Z,14.61
2023-08-14T14:07:40.000Z,16.07
2023-08-14T14:12:36.000Z,15.03
2023-08-14T14:17:36.000Z,15.03
2023-08-14T14:22:36.000Z,14.78
2023-08-14T14:27:36.000Z,18.51
2023-08-14T14:32:36.000Z,22.59
2023-08-14T14:37:35.000Z,15.21
2023-08-14T14:42:36.000Z,15.15
2023-08-14T14:47:36.000Z,14.67
2023-08-14T14:52:36.000Z,14.65
2023-08-14T14:57:36.000Z,14.78
2023-08-14T15:02:40.000Z,14.54
2023-08-14T15:07:36.000Z,14.94
2023-08-14T15:12:36.000Z,15.95
2023-08-14T15:17:35.000Z,15.84
2023-08-14T15:22:36.000Z,15.84
2023-08-14T15:27:35.000Z,15.07
2023-08-14T15:32:36.000Z,15.06
2023-08-14T15:37:36.000Z,16.48
2023-08-14T15:42:35.000Z,15.09
2023-08-14T15:47:37.000Z,14.91
2023-08-14T15:52:36.000Z,16.02
2023-08-14T15:57:36.000Z,16.82
2023-08-14T16:02:36.000Z,16.93
2023-08-14T16:07:35.000Z,17.79
2023-08-14T16:12:35.000Z,16.04
2023-08-14T16:17:35.000Z,16.84
2023-08-14T16:22:35.000Z,18.55
2023-08-14T16:27:36.000Z,18.55
2023-08-14T16:32:36.000Z,17.88
2023-08-14T16:37:36.000Z,17.14
2023-08-14T16:42:36.000Z,17.99
2023-08-14T16:47:37.000Z,17.39
2023-08-14T16:52:36.000Z,21.7
2023-08-14T16:57:38.000Z,18.51
2023-08-14T17:02:36.000Z,19.87
2023-08-14T17:07:36.000Z,19.19
2023-08-14T17:12:36.000Z,16.93
2023-08-14T17:17:36.000Z,18.52
2023-08-14T17:22:36.000Z,18.11
2023-08-14T17:27:35.000Z,21.03
2023-08-14T17:32:36.000Z,20.14
2023-08-14T17:37:35.000Z,18.92
2023-08-14T17:42:35.000Z,18.92
2023-08-14T17:47:37.000Z,17.59
2023-08-14T17:52:36.000Z,17.23
2023-08-14T17:57:36.000Z,19.38
2023-08-14T18:02:35.000Z,21.21
2023-08-14T18:07:35.000Z,21.11
2023-08-14T18:12:35.000Z,20.66
2023-08-14T18:17:36.000Z,18.79
2023-08-14T18:22:36.000Z,18.63
2023-08-14T18:27:36.000Z,19.51
2023-08-14T18:32:36.000Z,18.48
2023-08-14T18:37:36.000Z,19.03
2023-08-14T18:42:36.000Z,18.83
2023-08-14T18:47:36.000Z,19.11
2023-08-14T18:52:36.000Z,20.57
2023-08-14T18:57:36.000Z,20.57
2023-08-14T19:02:36.000Z,20.23
2023-08-14T19:07:36.000Z,21.67
2023-08-14T19:12:36.000Z,20.34
2023-08-14T19:17:36.000Z,20.18
2023-08-14T19:22:35.000Z,22.56
2023-08-14T19:27:36.000Z,23.78
2023-08-14T19:32:36.000Z,26.32
2023-08-14T19:37:36.000Z,31.38
2023-08-14T19:42:36.000Z,30.81
2023-08-14T19:47:35.000Z,30.05
2023-08-14T19:52:35.000Z,31.33
2023-08-14T19:57:36.000Z,30.69
2023-08-14T20:02:37.000Z,31.95
2023-08-14T20:07:36.000Z,31.95
2023-08-14T20:12:36.000Z,32.02
2023-08-14T20:17:37.000Z,32.47
2023-08-14T20:22:36.000Z,32.13
2023-08-14T20:27:36.000Z,32.39
2023-08-14T20:32:37.000Z,32.07
2023-08-14T20:37:36.000Z,30.97
2023-08-14T20:42:36.000Z,30.3
2023-08-14T20:47:36.000Z,27.75
2023-08-14T20:52:35.000Z,29.01
2023-08-14T20:57:36.000Z,26.67
2023-08-14T21:02:36.000Z,24.41
2023-08-14T21:07:36.000Z,27.6
2023-08-14T21:12:36.000Z,25.38
2023-08-14T21:17:36.000Z,22.66
2023-08-14T21:22:37.000Z,22.66
2023-08-14T21:27:36.000Z,22.92
2023-08-14T21:32:36.000Z,23.19
2023-08-14T21:37:36.000Z,24.55
2023-08-14T21:42:36.000Z,26.07
2023-08-14T21:47:36.000Z,28.01
2023-08-14T21:52:36.000Z,30.84
2023-08-14T21:57:36.000Z,30.85
2023-08-14T22:02:36.000Z,32.74
2023-08-14T22:07:36.000Z,31.97
2023-08-14T22:12:36.000Z,32.3
2023-08-14T22:22:36.000Z,31.82
2023-08-14T22:27:36.000Z,31.82
2023-08-14T22:32:36.000Z,30.95
2023-08-14T22:37:36.000Z,31.24
2023-08-14T22:42:36.000Z,29.52
2023-08-14T22:47:36.000Z,28.78
2023-08-14T22:52:35.000Z,28.99
2023-08-14T22:57:36.000Z,29.44
2023-08-14T23:02:36.000Z,31.54
2023-08-14T23:07:36.000Z,33.32
2023-08-14T23:12:36.000Z,33.16
2023-08-14T23:17:36.000Z,33.8
2023-08-14T23:22:36.000Z,32.84
2023-08-14T23:27:37.000Z,30.05
2023-08-14T23:32:35.000Z,29.25
2023-08-14T23:37:36.000Z,28.65
2023-08-14T23:42:36.000Z,28.65
2023-08-14T23:47:35.000Z,27.41
2023-08-14T23:52:36.000Z,27.64
2023-08-14T23:57:36.000Z,28.52
